Time;durP1;ratioP1;P1;durP2;ratioP2;P2;SDS_P1;SDS_P2;PMS_P1;PMS_P2;Temp;Humidity;BMP_temperature;BMP_pressure;BME280_temperature;BME280_humidity;BME280_pressure;Samples;Min_cycle;Max_cycle;Signal;HPM_P1;HPM_P2
2021/05/16 00:02:10;;;;;;;27.70;21.75;;;14.70;99.90;;;;;;5089100;28;20804;-71
2021/05/16 00:04:37;;;;;;;28.98;23.20;;;14.70;99.90;;;;;;5087687;28;20432;-72
2021/05/16 00:07:03;;;;;;;29.70;23.40;;;14.70;99.90;;;;;;5072925;28;20418;-72
2021/05/16 00:09:30;;;;;;;30.70;24.20;;;14.60;99.90;;;;;;5087246;28;20456;-72
2021/05/16 00:11:57;;;;;;;32.42;25.63;;;14.60;99.90;;;;;;5091785;28;20424;-72
2021/05/16 00:14:24;;;;;;;34.85;25.92;;;14.60;99.90;;;;;;5068844;28;20426;-72
2021/05/16 00:16:50;;;;;;;36.08;26.60;;;14.60;99.90;;;;;;5087049;28;20443;-72
2021/05/16 00:19:17;;;;;;;35.28;26.40;;;14.50;99.90;;;;;;5086369;28;20436;-72
2021/05/16 00:21:43;;;;;;;34.42;26.23;;;14.40;99.90;;;;;;5090529;28;20496;-72
2021/05/16 00:24:10;;;;;;;36.65;26.33;;;14.40;99.90;;;;;;5087196;28;20430;-72
2021/05/16 00:26:36;;;;;;;33.13;24.85;;;14.40;99.90;;;;;;5090329;28;20812;-71
2021/05/16 00:29:04;;;;;;;35.83;25.65;;;14.40;99.90;;;;;;5071248;28;20425;-71
2021/05/16 00:31:30;;;;;;;35.20;24.42;;;14.40;99.90;;;;;;5090759;28;20418;-71
2021/05/16 00:33:57;;;;;;;32.83;24.85;;;14.40;99.90;;;;;;5089267;28;20455;-71
2021/05/16 00:36:24;;;;;;;34.58;24.50;;;14.40;99.90;;;;;;5088307;28;20893;-71
2021/05/16 00:38:52;;;;;;;38.92;25.83;;;14.30;99.90;;;;;;5088396;28;20421;-71
2021/05/16 00:41:18;;;;;;;36.43;25.43;;;14.30;99.90;;;;;;5090624;28;20429;-71
2021/05/16 00:43:45;;;;;;;36.88;24.80;;;14.30;99.90;;;;;;5087287;28;20507;-71
2021/05/16 00:46:12;;;;;;;38.63;25.70;;;14.30;99.90;;;;;;5071991;28;20931;-72
2021/05/16 00:48:38;;;;;;;38.08;24.60;;;14.30;99.90;;;;;;5088402;28;20424;-72
2021/05/16 00:51:06;;;;;;;35.53;23.98;;;14.20;99.90;;;;;;5105437;28;20467;-71
2021/05/16 00:53:34;;;;;;;38.38;23.00;;;14.20;99.90;;;;;;5068226;28;20450;-73
2021/05/16 00:56:01;;;;;;;35.90;22.05;;;14.20;99.90;;;;;;5088925;28;20662;-72
2021/05/16 00:58:28;;;;;;;37.63;23.17;;;14.20;99.90;;;;;;5067015;28;20458;-72
2021/05/16 01:00:55;;;;;;;35.63;21.65;;;14.10;99.90;;;;;;5070506;28;20906;-72
2021/05/16 01:03:27;;;;;;;40.42;21.77;;;14.10;99.90;;;;;;5070689;28;20760;-72
2021/05/16 01:05:54;;;;;;;37.30;21.40;;;14.10;99.90;;;;;;5070736;28;20414;-72
2021/05/16 01:08:26;;;;;;;36.23;20.93;;;14.10;99.90;;;;;;5067241;28;20946;-72
2021/05/16 01:10:53;;;;;;;36.33;20.70;;;14.10;99.90;;;;;;5085844;28;20421;-72
2021/05/16 01:13:19;;;;;;;39.33;20.20;;;14.10;99.90;;;;;;5102960;28;21388;-72
2021/05/16 01:15:47;;;;;;;37.90;19.35;;;14.10;99.90;;;;;;5102206;28;20433;-72
2021/05/16 01:18:15;;;;;;;40.35;19.02;;;14.10;99.90;;;;;;5067104;28;20898;-72
2021/05/16 01:20:46;;;;;;;34.35;16.95;;;14.10;99.90;;;;;;5071942;28;20425;-72
2021/05/16 01:23:17;;;;;;;34.63;17.35;;;14.10;99.90;;;;;;5086180;28;20417;-72
2021/05/16 01:25:51;;;;;;;35.58;16.90;;;14.10;99.90;;;;;;5072115;28;20426;-72
2021/05/16 01:28:19;;;;;;;30.45;15.57;;;14.10;99.90;;;;;;5066077;28;20473;-71
2021/05/16 01:30:47;;;;;;;31.77;15.43;;;14.10;99.90;;;;;;5089623;28;20414;-72
2021/05/16 01:33:15;;;;;;;33.23;14.13;;;14.10;99.90;;;;;;5087348;28;20433;-72
2021/05/16 01:35:41;;;;;;;32.60;14.98;;;14.10;99.90;;;;;;5089326;28;20410;-72
2021/05/16 01:38:11;;;;;;;33.90;14.27;;;14.10;99.90;;;;;;5087691;28;20845;-72
2021/05/16 01:40:40;;;;;;;35.58;13.68;;;14.10;99.90;;;;;;5088770;28;20397;-72
2021/05/16 01:43:16;;;;;;;31.02;13.80;;;14.10;99.90;;;;;;5069998;28;20426;-71
2021/05/16 01:45:44;;;;;;;30.07;12.20;;;14.10;99.90;;;;;;5070978;28;20426;-72
2021/05/16 01:48:12;;;;;;;27.67;10.90;;;14.00;99.90;;;;;;5085654;28;20432;-71
2021/05/16 01:50:40;;;;;;;25.27;7.68;;;14.00;99.90;;;;;;5101576;28;20428;-71
2021/05/16 01:53:08;;;;;;;27.42;10.00;;;14.00;99.90;;;;;;5087903;28;20470;-72
2021/05/16 01:55:36;;;;;;;24.65;8.88;;;14.00;99.90;;;;;;5070773;28;20933;-72
2021/05/16 01:58:04;;;;;;;25.33;9.80;;;13.90;99.90;;;;;;5070147;28;20418;-71
2021/05/16 02:00:33;;;;;;;28.08;10.07;;;13.90;99.90;;;;;;5070680;28;20422;-72
2021/05/16 02:03:05;;;;;;;23.35;8.85;;;13.90;99.90;;;;;;5067630;28;20913;-73
2021/05/16 02:05:39;;;;;;;26.25;10.70;;;13.90;99.90;;;;;;5070738;28;20429;-72
2021/05/16 02:08:06;;;;;;;22.27;9.18;;;13.90;99.90;;;;;;5069283;28;20420;-71
2021/05/16 02:10:35;;;;;;;21.77;10.05;;;13.90;99.90;;;;;;5068626;28;20429;-70
2021/05/16 02:13:09;;;;;;;22.13;9.73;;;13.80;99.90;;;;;;5068679;28;20421;-72
2021/05/16 02:15:37;;;;;;;23.55;9.25;;;13.80;99.90;;;;;;5069460;28;20414;-73
2021/05/16 02:18:08;;;;;;;21.93;9.87;;;13.80;99.90;;;;;;5068708;28;20939;-71
2021/05/16 02:20:35;;;;;;;21.60;9.90;;;13.80;99.90;;;;;;5087924;28;21285;-72
2021/05/16 02:23:02;;;;;;;22.23;8.73;;;13.80;99.90;;;;;;5069334;28;20428;-71
2021/05/16 02:25:32;;;;;;;23.33;9.30;;;13.80;99.90;;;;;;5088795;28;20537;-72
2021/05/16 02:27:59;;;;;;;21.60;10.07;;;13.80;99.90;;;;;;5070311;28;20418;-71
2021/05/16 02:30:26;;;;;;;21.63;10.43;;;13.70;99.90;;;;;;5101332;28;20425;-72
2021/05/16 02:32:53;;;;;;;22.85;11.02;;;13.70;99.90;;;;;;5070414;28;20414;-72
2021/05/16 02:35:20;;;;;;;24.97;12.40;;;13.70;99.90;;;;;;5083183;28;20413;-72
2021/05/16 02:37:50;;;;;;;24.67;12.90;;;13.70;99.90;;;;;;5070260;28;20467;-72
2021/05/16 02:40:17;;;;;;;23.75;11.38;;;13.70;99.90;;;;;;5068565;28;20475;-72
2021/05/16 02:42:45;;;;;;;23.88;11.45;;;13.80;99.90;;;;;;5087095;28;20401;-71
2021/05/16 02:45:14;;;;;;;23.23;10.20;;;13.70;99.90;;;;;;5100571;28;20425;-72
2021/05/16 02:47:41;;;;;;;21.85;10.88;;;13.70;99.90;;;;;;5087891;28;20464;-72
2021/05/16 02:50:11;;;;;;;24.77;10.65;;;13.70;99.90;;;;;;5069128;28;20432;-73
2021/05/16 02:52:56;;;;;;;24.50;11.40;;;13.70;99.90;;;;;;5104129;28;20461;-72
2021/05/16 02:55:24;;;;;;;21.52;10.77;;;13.70;99.90;;;;;;5085072;28;20420;-70
2021/05/16 02:57:51;;;;;;;21.20;10.85;;;13.70;99.90;;;;;;5069613;28;20409;-73
2021/05/16 03:00:22;;;;;;;24.75;12.15;;;13.70;99.90;;;;;;5068441;28;20421;-72
2021/05/16 03:02:50;;;;;;;23.42;11.93;;;13.70;99.90;;;;;;5068342;28;20409;-71
2021/05/16 03:05:17;;;;;;;25.33;11.95;;;13.80;99.90;;;;;;5096719;28;20915;-72
2021/05/16 03:07:47;;;;;;;23.20;12.27;;;13.80;99.90;;;;;;5087148;28;20466;-71
2021/05/16 03:10:14;;;;;;;23.95;12.30;;;13.80;99.90;;;;;;5083347;28;20425;-71
2021/05/16 03:12:40;;;;;;;27.55;13.55;;;13.80;99.90;;;;;;5104234;28;20418;-74
2021/05/16 03:15:11;;;;;;;26.58;13.52;;;13.90;99.90;;;;;;5065225;28;20428;-70
2021/05/16 03:17:38;;;;;;;25.77;13.43;;;13.90;99.90;;;;;;5085524;28;20420;-71
2021/05/16 03:20:08;;;;;;;28.38;12.90;;;13.90;99.90;;;;;;5068561;28;20492;-71
2021/05/16 03:22:37;;;;;;;28.33;12.50;;;13.90;99.90;;;;;;5083882;28;20414;-70
2021/05/16 03:25:05;;;;;;;28.25;13.70;;;14.00;99.90;;;;;;5066322;28;20444;-70
2021/05/16 03:27:32;;;;;;;28.08;13.27;;;14.00;99.90;;;;;;5070451;28;20417;-70
2021/05/16 03:29:58;;;;;;;27.02;13.73;;;14.00;99.90;;;;;;5067356;28;20449;-71
2021/05/16 03:32:25;;;;;;;26.88;13.98;;;14.00;99.90;;;;;;5088351;28;20420;-70
2021/05/16 03:34:51;;;;;;;29.40;14.23;;;14.00;99.90;;;;;;5083101;28;20417;-71
2021/05/16 03:37:19;;;;;;;32.13;15.15;;;14.00;99.90;;;;;;5088285;28;20418;-70
2021/05/16 03:39:45;;;;;;;29.35;14.70;;;14.00;99.90;;;;;;5086198;28;20888;-70
2021/05/16 03:42:12;;;;;;;33.03;14.45;;;14.10;99.90;;;;;;5086850;28;20432;-70
2021/05/16 03:44:38;;;;;;;27.80;14.90;;;14.10;99.90;;;;;;5084557;28;20423;-70
2021/05/16 03:47:04;;;;;;;34.60;15.98;;;14.10;99.90;;;;;;5087672;28;20427;-72
2021/05/16 03:49:31;;;;;;;32.10;16.15;;;14.10;99.90;;;;;;5081001;28;20475;-70
2021/05/16 03:51:57;;;;;;;31.77;16.08;;;14.10;99.90;;;;;;5087857;28;20413;-70
2021/05/16 03:54:25;;;;;;;31.23;15.90;;;14.20;99.90;;;;;;5101053;28;20955;-70
2021/05/16 03:56:51;;;;;;;35.78;16.40;;;14.20;99.90;;;;;;5073606;28;20417;-70
2021/05/16 03:59:18;;;;;;;31.90;17.20;;;14.10;99.90;;;;;;5089827;28;20418;-71
2021/05/16 04:01:44;;;;;;;34.97;16.75;;;14.10;99.90;;;;;;5091089;28;20435;-70
2021/05/16 04:04:11;;;;;;;34.50;17.02;;;14.20;99.90;;;;;;5087268;28;20790;-71
2021/05/16 04:06:37;;;;;;;36.03;17.42;;;14.10;99.90;;;;;;5090238;28;20409;-71
2021/05/16 04:09:04;;;;;;;40.08;17.58;;;14.10;99.90;;;;;;5087194;28;20442;-71
2021/05/16 04:11:32;;;;;;;40.28;17.63;;;14.10;99.90;;;;;;5087352;28;20429;-71
2021/05/16 04:13:58;;;;;;;42.70;16.90;;;14.10;99.90;;;;;;5088304;28;20433;-71
2021/05/16 04:16:25;;;;;;;42.92;16.10;;;14.10;99.90;;;;;;5089216;28;21293;-71
2021/05/16 04:18:51;;;;;;;41.42;13.93;;;14.10;99.90;;;;;;5088072;28;20566;-71
2021/05/16 04:21:19;;;;;;;38.00;11.65;;;14.10;99.90;;;;;;5090489;28;20406;-72
2021/05/16 04:23:45;;;;;;;41.38;9.38;;;14.00;99.90;;;;;;5071772;28;20427;-71
2021/05/16 04:26:12;;;;;;;40.55;8.15;;;13.90;99.90;;;;;;5086645;28;20456;-70
2021/05/16 04:28:39;;;;;;;29.17;5.78;;;13.90;99.90;;;;;;5087508;28;20430;-71
2021/05/16 04:31:05;;;;;;;33.42;6.28;;;13.90;99.90;;;;;;5087420;28;20430;-70
2021/05/16 04:33:32;;;;;;;22.88;5.10;;;13.80;99.90;;;;;;5086986;28;20423;-71
2021/05/16 04:35:59;;;;;;;27.90;5.50;;;13.80;99.90;;;;;;5090128;28;20429;-70
2021/05/16 04:38:25;;;;;;;27.05;5.47;;;13.80;99.90;;;;;;5088587;28;20440;-72
2021/05/16 04:40:52;;;;;;;26.17;4.82;;;13.80;99.90;;;;;;5090127;28;22131;-72
2021/05/16 04:43:19;;;;;;;19.05;3.80;;;13.80;99.90;;;;;;5082550;28;20774;-70
2021/05/16 04:45:46;;;;;;;23.73;4.18;;;13.80;99.90;;;;;;5104366;28;20501;-70
2021/05/16 04:48:12;;;;;;;21.17;3.97;;;13.80;99.90;;;;;;5087551;28;20924;-70
2021/05/16 04:50:39;;;;;;;21.02;3.67;;;13.80;99.90;;;;;;5090514;28;20466;-71
2021/05/16 04:53:05;;;;;;;22.33;3.80;;;13.80;99.90;;;;;;5088322;28;20823;-71
2021/05/16 04:55:32;;;;;;;21.33;3.75;;;13.70;99.90;;;;;;5089334;28;20463;-70
2021/05/16 04:57:58;;;;;;;26.55;4.43;;;13.70;99.90;;;;;;5086453;28;20422;-70
2021/05/16 05:00:25;;;;;;;26.90;5.30;;;13.70;99.90;;;;;;5087288;28;20975;-69
2021/05/16 05:02:52;;;;;;;34.23;5.67;;;13.70;99.90;;;;;;5085849;28;20451;-71
2021/05/16 05:05:19;;;;;;;31.70;6.00;;;13.60;99.90;;;;;;5066355;28;20430;-70
2021/05/16 05:07:45;;;;;;;30.30;6.85;;;13.50;99.90;;;;;;5072082;28;20952;-70
2021/05/16 05:10:13;;;;;;;30.40;6.57;;;13.30;99.90;;;;;;5083526;28;20423;-70
2021/05/16 05:12:39;;;;;;;24.25;5.80;;;13.20;99.90;;;;;;5089768;28;20409;-70
2021/05/16 05:15:07;;;;;;;31.80;8.90;;;13.10;99.90;;;;;;5081270;28;20885;-70
2021/05/16 05:17:34;;;;;;;34.63;9.32;;;12.90;99.90;;;;;;5085443;28;21185;-72
2021/05/16 05:20:01;;;;;;;35.30;9.02;;;12.90;99.90;;;;;;5086459;28;20453;-70
2021/05/16 05:22:27;;;;;;;27.27;7.55;;;12.80;99.90;;;;;;5088675;28;20774;-71
2021/05/16 05:24:54;;;;;;;24.77;8.63;;;12.80;99.90;;;;;;5087125;28;20521;-70
2021/05/16 05:27:20;;;;;;;31.45;10.15;;;12.70;99.90;;;;;;5086279;28;20529;-71
2021/05/16 05:29:46;;;;;;;28.00;11.18;;;12.70;99.90;;;;;;5086519;28;20421;-71
2021/05/16 05:32:13;;;;;;;35.15;12.20;;;12.70;99.90;;;;;;5086735;28;20421;-71
2021/05/16 05:34:40;;;;;;;30.35;9.23;;;12.70;99.90;;;;;;5084507;28;20413;-70
2021/05/16 05:37:07;;;;;;;27.23;10.68;;;12.70;99.90;;;;;;5087507;28;20424;-71
2021/05/16 05:39:34;;;;;;;22.23;6.97;;;12.60;99.90;;;;;;5086261;28;20508;-71
2021/05/16 05:42:00;;;;;;;20.80;6.40;;;12.60;99.90;;;;;;5085554;28;20498;-71
2021/05/16 05:44:27;;;;;;;26.40;7.38;;;12.60;99.90;;;;;;5087283;28;20516;-70
2021/05/16 05:46:53;;;;;;;23.77;7.00;;;12.60;99.90;;;;;;5069639;28;21099;-70
2021/05/16 05:49:20;;;;;;;24.05;6.25;;;12.60;99.90;;;;;;5085353;28;20447;-72
2021/05/16 05:51:46;;;;;;;23.88;5.95;;;12.60;99.90;;;;;;5065303;28;20471;-70
2021/05/16 05:54:14;;;;;;;20.30;5.90;;;12.60;99.90;;;;;;5086274;28;20410;-72
2021/05/16 05:56:42;;;;;;;19.40;6.20;;;12.60;99.90;;;;;;5088680;28;20906;-72
2021/05/16 05:59:09;;;;;;;18.38;6.28;;;12.60;99.90;;;;;;5087658;28;20402;-72
2021/05/16 06:01:36;;;;;;;17.92;5.50;;;12.70;99.90;;;;;;5087254;28;20426;-71
2021/05/16 06:04:02;;;;;;;19.48;5.38;;;12.70;99.90;;;;;;5088417;28;20512;-73
2021/05/16 06:06:29;;;;;;;22.98;5.57;;;12.70;99.90;;;;;;5069450;28;20425;-72
2021/05/16 06:08:55;;;;;;;18.85;3.95;;;12.80;99.90;;;;;;5088888;28;20413;-72
2021/05/16 06:11:23;;;;;;;16.48;4.22;;;12.80;99.90;;;;;;5087333;28;20429;-72
2021/05/16 06:13:49;;;;;;;16.50;3.50;;;12.80;99.90;;;;;;5087133;28;20424;-73
2021/05/16 06:16:16;;;;;;;17.38;3.80;;;12.80;99.90;;;;;;5087453;28;20410;-72
2021/05/16 06:18:42;;;;;;;16.95;3.60;;;12.80;99.90;;;;;;5088381;28;20415;-72
2021/05/16 06:21:09;;;;;;;13.70;3.10;;;12.90;99.90;;;;;;5087098;28;20429;-73
2021/05/16 06:23:44;;;;;;;15.77;2.97;;;12.90;99.90;;;;;;5086475;28;20779;-72
2021/05/16 06:26:10;;;;;;;13.20;2.97;;;12.90;99.90;;;;;;5088051;28;20464;-73
2021/05/16 06:28:37;;;;;;;13.20;2.80;;;12.90;99.90;;;;;;5088020;28;20428;-73
2021/05/16 06:31:04;;;;;;;11.70;2.70;;;12.90;99.90;;;;;;5086910;28;20445;-73
2021/05/16 06:33:30;;;;;;;13.97;2.63;;;12.90;99.90;;;;;;5086214;28;20833;-72
2021/05/16 06:35:56;;;;;;;11.20;2.47;;;13.00;99.90;;;;;;5069478;28;20443;-72
2021/05/16 06:38:23;;;;;;;10.55;2.45;;;13.00;99.90;;;;;;5088486;28;21080;-72
2021/05/16 06:40:49;;;;;;;12.98;2.20;;;13.00;99.90;;;;;;5086112;28;20422;-72
2021/05/16 06:43:18;;;;;;;15.30;2.70;;;13.00;99.90;;;;;;5087427;28;20414;-73
2021/05/16 06:45:45;;;;;;;15.05;2.40;;;13.00;99.90;;;;;;5086216;28;20436;-73
2021/05/16 06:48:11;;;;;;;12.13;2.63;;;13.00;99.90;;;;;;5084484;28;20209;-72
2021/05/16 06:50:38;;;;;;;15.15;2.53;;;12.80;99.90;;;;;;5087163;28;20213;-74
2021/05/16 06:53:04;;;;;;;26.45;4.20;;;12.50;99.90;;;;;;5085758;28;20281;-74
2021/05/16 06:55:31;;;;;;;21.90;3.63;;;12.40;99.90;;;;;;5082446;28;20198;-74
2021/05/16 06:57:57;;;;;;;25.83;3.92;;;12.30;99.90;;;;;;5085184;28;20829;-75
2021/05/16 07:00:24;;;;;;;32.15;4.32;;;12.20;99.90;;;;;;5083505;28;20189;-75
2021/05/16 07:02:51;;;;;;;30.23;4.30;;;12.20;99.90;;;;;;5080574;28;20194;-74
2021/05/16 07:05:18;;;;;;;29.77;4.95;;;12.20;99.90;;;;;;5082289;28;20291;-73
2021/05/16 07:07:44;;;;;;;34.33;6.18;;;12.10;99.90;;;;;;5081719;28;20478;-73
2021/05/16 07:10:11;;;;;;;51.55;6.45;;;12.50;99.90;;;;;;5068201;28;20777;-72
2021/05/16 07:12:38;;;;;;;43.63;6.85;;;12.80;99.90;;;;;;5083064;28;20908;-72
2021/05/16 07:15:05;;;;;;;42.17;6.43;;;13.00;99.90;;;;;;5085154;28;20413;-72
2021/05/16 07:17:32;;;;;;;43.70;6.45;;;13.10;99.90;;;;;;5083546;28;20422;-72
2021/05/16 07:19:59;;;;;;;49.85;7.32;;;13.20;99.90;;;;;;5065522;28;20483;-72
2021/05/16 07:22:25;;;;;;;47.58;7.03;;;13.30;99.90;;;;;;5087665;28;20413;-72
2021/05/16 07:24:51;;;;;;;49.35;6.90;;;13.30;99.90;;;;;;5084713;28;20421;-72
2021/05/16 07:27:18;;;;;;;41.28;6.50;;;13.40;99.90;;;;;;5084019;28;20819;-70
2021/05/16 07:29:44;;;;;;;41.50;6.97;;;13.40;99.90;;;;;;5087988;28;20461;-72
2021/05/16 07:32:10;;;;;;;42.00;6.07;;;13.50;99.90;;;;;;5089152;28;20496;-70
2021/05/16 07:34:37;;;;;;;41.80;6.73;;;13.50;99.90;;;;;;5089536;28;20528;-72
2021/05/16 07:37:04;;;;;;;38.95;6.32;;;13.50;99.90;;;;;;5068607;28;20440;-72
2021/05/16 07:39:30;;;;;;;36.22;5.50;;;13.50;99.90;;;;;;5070523;28;20434;-75
2021/05/16 07:41:59;;;;;;;34.35;5.85;;;13.50;99.90;;;;;;5071720;28;20932;-75
2021/05/16 07:44:25;;;;;;;35.37;5.77;;;13.50;99.90;;;;;;5089424;28;20421;-73
2021/05/16 07:46:51;;;;;;;37.80;5.90;;;13.40;99.90;;;;;;5087875;28;20428;-74
2021/05/16 07:49:18;;;;;;;33.03;5.80;;;13.50;99.90;;;;;;5089848;28;20513;-72
2021/05/16 07:51:44;;;;;;;35.30;6.05;;;13.40;99.90;;;;;;5086952;28;20529;-73
2021/05/16 07:54:11;;;;;;;39.55;6.13;;;13.40;99.90;;;;;;5086604;28;20421;-74
2021/05/16 07:56:38;;;;;;;34.53;5.90;;;13.40;99.90;;;;;;5090015;28;20515;-74
2021/05/16 07:59:05;;;;;;;39.70;6.10;;;13.30;99.90;;;;;;5071477;28;20425;-72
2021/05/16 08:01:32;;;;;;;34.58;5.63;;;13.30;99.90;;;;;;5074248;28;20436;-73
2021/05/16 08:03:58;;;;;;;37.03;5.60;;;13.30;99.90;;;;;;5088079;28;20429;-73
2021/05/16 08:06:25;;;;;;;31.67;5.93;;;13.20;99.90;;;;;;5088819;28;20434;-73
2021/05/16 08:08:51;;;;;;;32.42;5.78;;;13.20;99.90;;;;;;5090507;28;20516;-72
2021/05/16 08:11:19;;;;;;;30.48;5.13;;;13.30;99.90;;;;;;5069464;28;20784;-71
2021/05/16 08:13:45;;;;;;;31.48;5.53;;;13.30;99.90;;;;;;5088887;28;21292;-74
2021/05/16 08:16:11;;;;;;;28.90;4.90;;;13.30;99.90;;;;;;5086443;28;20431;-71
2021/05/16 08:18:38;;;;;;;29.50;5.23;;;13.40;99.90;;;;;;5070498;28;20920;-72
2021/05/16 08:21:05;;;;;;;24.73;4.70;;;13.40;99.90;;;;;;5090792;28;20410;-74
2021/05/16 08:23:31;;;;;;;29.35;4.93;;;13.50;99.90;;;;;;5088370;28;20423;-74
2021/05/16 08:25:57;;;;;;;37.60;5.57;;;13.40;99.90;;;;;;5072553;28;20842;-74
2021/05/16 08:28:25;;;;;;;46.22;4.78;;;13.40;99.90;;;;;;5103822;27;20427;-78
2021/05/16 08:30:52;;;;;;;28.58;4.10;;;13.30;99.90;;;;;;5087549;28;20506;-78
2021/05/16 08:33:18;;;;;;;24.48;3.88;;;12.80;99.90;;;;;;5089232;28;20482;-76
2021/05/16 08:35:45;;;;;;;17.50;3.33;;;12.50;99.90;;;;;;5089076;28;20470;-77
2021/05/16 08:38:11;;;;;;;20.47;3.70;;;12.30;99.90;;;;;;5089250;28;20429;-78
2021/05/16 08:40:38;;;;;;;21.08;3.85;;;12.10;99.90;;;;;;5090093;28;20937;-76
2021/05/16 08:43:05;;;;;;;19.52;3.92;;;12.10;99.90;;;;;;5084546;28;20427;-77
2021/05/16 08:45:33;;;;;;;24.42;4.07;;;12.10;99.90;;;;;;5085500;28;20746;-76
2021/05/16 08:48:00;;;;;;;33.13;5.43;;;12.10;99.90;;;;;;5084727;28;20453;-77
2021/05/16 08:50:27;;;;;;;39.28;6.70;;;12.10;99.90;;;;;;5087109;28;20425;-76
2021/05/16 08:52:54;;;;;;;45.08;7.70;;;12.20;99.90;;;;;;5088580;28;20546;-76
2021/05/16 08:55:21;;;;;;;63.67;9.23;;;12.30;99.90;;;;;;5085813;28;20425;-76
2021/05/16 08:57:48;;;;;;;63.60;9.20;;;12.30;99.90;;;;;;5069142;28;20512;-75
2021/05/16 09:00:16;;;;;;;60.15;8.70;;;12.40;99.90;;;;;;5086991;28;20889;-74
2021/05/16 09:03:08;;;;;;;59.65;10.13;;;12.50;99.90;;;;;;5086897;28;20567;-74
2021/05/16 09:05:37;;;;;;;56.80;9.63;;;12.60;99.90;;;;;;5081352;28;20437;-74
2021/05/16 09:08:06;;;;;;;55.53;8.30;;;12.70;99.90;;;;;;5089682;28;20618;-74
2021/05/16 09:10:33;;;;;;;57.47;9.02;;;12.50;99.90;;;;;;5089361;28;20198;-73
2021/05/16 09:13:20;;;;;;;55.85;7.30;;;12.50;99.90;;;;;;5090630;28;20202;-72
2021/05/16 09:16:06;;;;;;;51.60;7.50;;;12.40;99.90;;;;;;5088858;28;20266;-74
2021/05/16 09:18:36;;;;;;;60.67;7.70;;;12.40;99.90;;;;;;5088039;28;20669;-73
2021/05/16 09:21:31;;;;;;;56.08;7.32;;;12.40;99.90;;;;;;5099984;28;20210;-74
2021/05/16 09:24:14;;;;;;;52.05;7.13;;;12.30;99.90;;;;;;5054531;28;20218;-74
2021/05/16 09:26:56;;;;;;;47.35;7.72;;;12.40;99.90;;;;;;5088552;28;20641;-72
2021/05/16 09:29:27;;;;;;;49.10;7.63;;;12.40;99.90;;;;;;5087196;28;20263;-74
2021/05/16 09:31:54;;;;;;;43.05;6.68;;;12.50;99.90;;;;;;5085652;28;20215;-73
2021/05/16 09:34:22;;;;;;;45.20;7.40;;;12.50;99.90;;;;;;5087702;28;20335;-73
2021/05/16 09:36:50;;;;;;;45.63;7.22;;;12.50;99.90;;;;;;5099599;28;20461;-72
2021/05/16 09:39:19;;;;;;;46.00;7.50;;;12.70;99.90;;;;;;5087244;28;20414;-73
2021/05/16 09:41:56;;;;;;;49.95;8.50;;;12.90;99.90;;;;;;5085809;28;20414;-73
2021/05/16 09:44:37;;;;;;;46.17;7.35;;;13.00;99.90;;;;;;5087576;28;21119;-73
2021/05/16 09:47:15;;;;;;;45.25;6.70;;;13.00;99.90;;;;;;5087438;28;20885;-73
2021/05/16 09:49:44;;;;;;;46.15;7.10;;;13.10;99.90;;;;;;5082990;28;20456;-72
2021/05/16 09:52:12;;;;;;;36.67;6.40;;;13.10;99.90;;;;;;5085124;28;20422;-73
2021/05/16 09:54:59;;;;;;;37.97;6.82;;;13.20;99.90;;;;;;5099127;28;20425;-73
2021/05/16 09:57:28;;;;;;;34.43;6.47;;;13.30;99.90;;;;;;5084187;28;20436;-74
2021/05/16 09:59:55;;;;;;;46.70;6.72;;;13.40;99.90;;;;;;5087137;28;20777;-73
2021/05/16 10:02:24;;;;;;;42.10;6.75;;;13.50;99.90;;;;;;5084797;28;20450;-75
2021/05/16 10:04:53;;;;;;;42.08;6.95;;;13.60;99.90;;;;;;5087678;28;20426;-74
2021/05/16 10:07:21;;;;;;;37.63;6.75;;;13.60;99.90;;;;;;5086595;28;20430;-74
2021/05/16 10:09:48;;;;;;;30.73;6.40;;;13.60;99.90;;;;;;5087872;28;20963;-73
2021/05/16 10:12:16;;;;;;;39.70;6.30;;;13.70;99.90;;;;;;5086919;28;20782;-74
2021/05/16 10:14:46;;;;;;;33.33;5.70;;;13.70;99.90;;;;;;5098201;28;20481;-73
2021/05/16 10:17:14;;;;;;;29.90;5.35;;;13.80;99.90;;;;;;5088409;28;20402;-72
2021/05/16 10:19:43;;;;;;;34.80;5.25;;;13.80;99.90;;;;;;5082363;28;20834;-72
2021/05/16 10:22:15;;;;;;;33.47;5.47;;;13.90;99.90;;;;;;5084740;28;20468;-72
2021/05/16 10:24:43;;;;;;;32.08;6.18;;;14.00;99.90;;;;;;5081936;28;20522;-73
2021/05/16 10:27:25;;;;;;;33.00;5.67;;;14.10;99.90;;;;;;5085520;28;20414;-72
2021/05/16 10:29:54;;;;;;;29.83;5.72;;;14.20;99.90;;;;;;5084625;28;20410;-72
2021/05/16 10:32:26;;;;;;;31.48;5.28;;;14.20;99.90;;;;;;5099746;28;20991;-74
2021/05/16 10:34:54;;;;;;;32.80;5.97;;;14.30;99.90;;;;;;5067037;28;20418;-73
2021/05/16 10:37:39;;;;;;;35.50;6.15;;;14.30;99.90;;;;;;5087878;28;20421;-72
2021/05/16 10:40:21;;;;;;;33.65;5.78;;;14.50;99.90;;;;;;5085879;28;20461;-71
2021/05/16 10:42:48;;;;;;;31.17;5.15;;;14.60;99.90;;;;;;5087385;28;20413;-72
2021/05/16 10:45:16;;;;;;;32.45;5.30;;;14.70;99.90;;;;;;5069578;28;20410;-72
2021/05/16 10:47:55;;;;;;;26.77;4.85;;;14.80;99.90;;;;;;5087121;28;20448;-72
2021/05/16 10:50:41;;;;;;;25.13;5.10;;;14.70;99.90;;;;;;5100861;28;20438;-73
2021/05/16 10:53:14;;;;;;;27.77;5.27;;;14.70;99.90;;;;;;5087336;28;20539;-72
2021/05/16 10:55:43;;;;;;;28.65;5.75;;;14.70;99.90;;;;;;5088340;28;20424;-72
2021/05/16 10:58:41;;;;;;;27.70;5.45;;;14.70;99.90;;;;;;5087126;28;20446;-73
2021/05/16 11:01:08;;;;;;;28.52;5.90;;;14.70;99.90;;;;;;5081453;28;20804;-72
2021/05/16 11:03:50;;;;;;;29.88;5.55;;;14.70;99.90;;;;;;5072438;28;20929;-73
2021/05/16 11:06:18;;;;;;;26.08;5.07;;;14.70;99.90;;;;;;5090613;28;20430;-72
2021/05/16 11:09:13;;;;;;;30.10;4.43;;;14.80;99.90;;;;;;5091499;28;20483;-72
2021/05/16 11:12:02;;;;;;;27.00;4.32;;;14.90;99.90;;;;;;5091695;28;20409;-72
2021/05/16 11:14:34;;;;;;;27.77;4.88;;;15.00;99.60;;;;;;5087872;28;20425;-73
2021/05/16 11:17:01;;;;;;;25.00;4.70;;;15.10;98.60;;;;;;5105279;28;20428;-74
2021/05/16 11:19:29;;;;;;;26.67;4.65;;;15.10;98.50;;;;;;5091260;28;20422;-73
2021/05/16 11:21:57;;;;;;;22.93;4.17;;;15.10;98.60;;;;;;5090556;28;20418;-73
2021/05/16 11:24:47;;;;;;;23.80;4.47;;;15.10;98.70;;;;;;5091607;28;20889;-72
2021/05/16 11:27:32;;;;;;;18.67;3.88;;;15.20;98.00;;;;;;5091767;28;20449;-73
2021/05/16 11:30:01;;;;;;;25.35;4.28;;;15.20;97.00;;;;;;5087193;28;20433;-72
2021/05/16 11:32:31;;;;;;;22.30;4.15;;;15.30;96.50;;;;;;5090439;28;20417;-72
2021/05/16 11:35:18;;;;;;;28.77;4.83;;;15.30;96.00;;;;;;5089652;28;20413;-73
2021/05/16 11:37:48;;;;;;;28.20;5.03;;;15.20;96.40;;;;;;5105982;28;20902;-73
2021/05/16 11:40:24;;;;;;;25.58;4.72;;;15.20;97.00;;;;;;5067222;28;20483;-74
2021/05/16 11:43:02;;;;;;;30.33;5.33;;;15.30;97.10;;;;;;5089851;28;20433;-73
2021/05/16 11:45:30;;;;;;;30.00;4.75;;;15.30;97.00;;;;;;5072368;28;20432;-72
2021/05/16 11:47:56;;;;;;;32.13;4.90;;;15.30;96.90;;;;;;5070046;28;20426;-73
2021/05/16 11:50:41;;;;;;;28.02;4.97;;;15.40;96.30;;;;;;5089789;28;20889;-73
2021/05/16 11:53:08;;;;;;;35.75;5.47;;;15.40;96.70;;;;;;5090253;28;20470;-74
2021/05/16 11:55:35;;;;;;;30.48;5.25;;;15.40;97.50;;;;;;5067249;28;20500;-76
2021/05/16 11:58:03;;;;;;;33.30;5.78;;;15.60;97.40;;;;;;5045243;28;20736;-76
2021/05/16 12:00:30;;;;;;;27.42;5.03;;;15.60;97.10;;;;;;5049206;28;21034;-74
2021/05/16 12:03:11;;;;;;;25.50;4.85;;;15.80;97.20;;;;;;5064308;28;20423;-72
2021/05/16 12:05:38;;;;;;;33.25;5.45;;;16.00;96.90;;;;;;5088551;28;20461;-74
2021/05/16 12:08:21;;;;;;;26.90;4.72;;;16.10;95.80;;;;;;5084495;28;20409;-74
2021/05/16 12:11:08;;;;;;;29.67;5.60;;;16.20;94.70;;;;;;5066179;28;20774;-74
2021/05/16 12:13:34;;;;;;;34.25;5.50;;;16.30;94.40;;;;;;5090770;28;20447;-73
2021/05/16 12:16:15;;;;;;;31.08;4.82;;;16.30;94.40;;;;;;5048279;28;20435;-73
2021/05/16 12:18:42;;;;;;;24.88;4.63;;;16.30;94.10;;;;;;5067737;28;20587;-73
2021/05/16 12:21:08;;;;;;;29.48;5.43;;;16.20;93.80;;;;;;5066046;28;20911;-73
2021/05/16 12:23:36;;;;;;;32.47;5.00;;;16.10;93.50;;;;;;5074761;28;20421;-72
2021/05/16 12:26:03;;;;;;;25.88;4.72;;;16.10;94.10;;;;;;5081994;28;20438;-72
2021/05/16 12:28:31;;;;;;;28.33;5.07;;;16.20;94.30;;;;;;5083347;28;20428;-74
2021/05/16 12:30:59;;;;;;;27.77;5.15;;;16.30;94.40;;;;;;5083018;28;20429;-72
2021/05/16 12:33:26;;;;;;;29.48;4.93;;;16.50;94.30;;;;;;5075159;28;20964;-72
2021/05/16 12:35:52;;;;;;;29.38;5.13;;;16.70;93.20;;;;;;5087736;28;20539;-72
2021/05/16 12:38:19;;;;;;;29.33;4.80;;;16.90;93.30;;;;;;5079558;28;20440;-73
2021/05/16 12:40:45;;;;;;;25.15;4.75;;;17.20;93.40;;;;;;5068022;28;20704;-71
2021/05/16 12:43:14;;;;;;;25.13;4.73;;;17.30;92.00;;;;;;5082211;28;20433;-71